Time;durP1;ratioP1;P1;durP2;ratioP2;P2;SDS_P1;SDS_P2;PMS_P1;PMS_P2;Temp;Humidity;BMP_temperature;BMP_pressure;BME280_temperature;BME280_humidity;BME280_pressure;Samples;Min_cycle;Max_cycle;Signal;HPM_P1;HPM_P2
2022/05/12 00:00:31;;;;;;;4.43;2.47;;;23.10;34.80;;;;;;7308732;19;20895;-47
2022/05/12 00:03:03;;;;;;;3.80;2.30;;;23.10;35.30;;;;;;7307667;19;20405;-47
2022/05/12 00:05:33;;;;;;;2.17;2.07;;;23.00;35.40;;;;;;7315016;19;20964;-48
2022/05/12 00:08:02;;;;;;;4.07;2.30;;;23.00;35.70;;;;;;7309625;19;20372;-47
2022/05/12 00:10:32;;;;;;;3.03;2.50;;;23.10;36.00;;;;;;7315916;19;20479;-47
2022/05/12 00:13:01;;;;;;;2.50;2.30;;;23.00;36.20;;;;;;7310578;19;20668;-47
2022/05/12 00:15:36;;;;;;;2.80;2.00;;;23.00;36.50;;;;;;7310610;19;20858;-47
2022/05/12 00:18:09;;;;;;;2.83;2.50;;;23.00;37.00;;;;;;7310314;19;20823;-47
2022/05/12 00:20:42;;;;;;;2.40;2.20;;;23.00;37.10;;;;;;7317636;19;20368;-47
2022/05/12 00:23:14;;;;;;;3.20;2.73;;;22.80;37.20;;;;;;7312501;19;20455;-47
2022/05/12 00:25:45;;;;;;;4.37;2.33;;;22.90;37.40;;;;;;7312032;19;21267;-47
2022/05/12 00:28:15;;;;;;;5.47;2.40;;;22.90;37.60;;;;;;7303895;19;20380;-47
2022/05/12 00:30:45;;;;;;;2.60;2.40;;;22.90;37.70;;;;;;7317502;19;20982;-47
2022/05/12 00:33:18;;;;;;;2.50;2.17;;;22.90;38.10;;;;;;7312328;19;20797;-47
2022/05/12 00:35:49;;;;;;;3.47;2.77;;;22.90;38.00;;;;;;7316123;19;20631;-48
2022/05/12 00:38:19;;;;;;;3.33;2.87;;;22.90;37.90;;;;;;7317141;19;20958;-47
2022/05/12 00:40:51;;;;;;;4.87;2.87;;;22.90;38.60;;;;;;7312683;19;20466;-48
2022/05/12 00:43:38;;;;;;;3.17;2.97;;;22.80;38.60;;;;;;7302486;19;20460;-48
2022/05/12 00:46:09;;;;;;;3.33;2.70;;;22.70;39.10;;;;;;7309211;19;20372;-47
2022/05/12 00:48:44;;;;;;;3.33;3.03;;;22.60;39.00;;;;;;7303388;19;21068;-48
2022/05/12 00:51:17;;;;;;;11.40;3.63;;;22.60;39.20;;;;;;7309399;19;20400;-47
2022/05/12 00:53:52;;;;;;;4.80;2.73;;;22.60;39.00;;;;;;7310617;19;20717;-47
2022/05/12 00:56:25;;;;;;;3.47;3.17;;;22.60;39.10;;;;;;7304629;19;20392;-47
2022/05/12 00:59:03;;;;;;;3.40;2.90;;;22.70;39.00;;;;;;7306037;19;20836;-47
2022/05/12 01:01:33;;;;;;;2.50;2.30;;;22.60;39.30;;;;;;7308647;19;20430;-42
2022/05/12 01:04:06;;;;;;;3.10;2.47;;;22.60;39.60;;;;;;7305558;19;20400;-42
2022/05/12 01:06:38;;;;;;;5.23;2.77;;;22.60;39.40;;;;;;7310932;19;20850;-42
2022/05/12 01:09:09;;;;;;;3.60;3.30;;;22.60;39.50;;;;;;7311898;19;20900;-42
2022/05/12 01:11:39;;;;;;;3.03;2.80;;;22.60;39.60;;;;;;7309545;19;20811;-42
2022/05/12 01:14:12;;;;;;;4.77;2.83;;;22.60;39.70;;;;;;7307751;19;21025;-42
2022/05/12 01:16:45;;;;;;;3.83;2.50;;;22.50;40.10;;;;;;7310964;19;20861;-42
2022/05/12 01:19:23;;;;;;;2.93;2.73;;;22.40;39.80;;;;;;7312561;19;20401;-42
2022/05/12 01:21:56;;;;;;;2.70;2.50;;;22.50;40.30;;;;;;7314160;19;20420;-42
2022/05/12 01:24:34;;;;;;;3.13;2.83;;;22.40;40.20;;;;;;7311511;19;21008;-42
2022/05/12 01:29:57;;;;;;;4.80;2.60;;;22.50;40.90;;;;;;7310186;19;20924;-47
2022/05/12 01:32:29;;;;;;;4.47;2.80;;;22.50;40.90;;;;;;7311457;19;20995;-47
2022/05/12 01:35:01;;;;;;;4.63;4.27;;;22.50;41.10;;;;;;7313234;19;20383;-48
2022/05/12 01:37:33;;;;;;;4.00;2.80;;;22.40;40.80;;;;;;7311588;19;20380;-47
2022/05/12 01:40:09;;;;;;;3.53;3.10;;;22.20;41.50;;;;;;7321443;19;20463;-47
2022/05/12 01:42:41;;;;;;;4.17;2.50;;;22.10;41.50;;;;;;7313422;19;20383;-48
2022/05/12 01:45:13;;;;;;;3.73;2.67;;;22.20;41.60;;;;;;7320597;19;20956;-47
2022/05/12 01:47:46;;;;;;;3.13;2.37;;;22.30;42.50;;;;;;7318491;19;20873;-48
2022/05/12 01:50:19;;;;;;;3.07;2.30;;;22.30;42.00;;;;;;7315783;19;20398;-47
2022/05/12 01:52:51;;;;;;;3.00;2.70;;;22.10;42.70;;;;;;7323878;19;20380;-48
2022/05/12 01:55:27;;;;;;;2.90;2.60;;;22.10;42.80;;;;;;7320356;19;20389;-47
2022/05/12 01:57:57;;;;;;;3.60;2.97;;;22.20;43.00;;;;;;7316234;19;20384;-47
2022/05/12 02:00:31;;;;;;;3.07;2.77;;;22.20;43.30;;;;;;7316070;19;20830;-48
2022/05/12 02:03:03;;;;;;;4.77;3.17;;;22.10;43.60;;;;;;7316937;19;20651;-47
2022/05/12 02:05:38;;;;;;;3.07;2.83;;;21.70;44.50;;;;;;7321602;19;20462;-47
2022/05/12 02:08:14;;;;;;;3.27;2.80;;;21.60;44.50;;;;;;7321738;19;20728;-47
2022/05/12 02:10:53;;;;;;;2.83;2.63;;;21.50;45.50;;;;;;7368618;19;20382;-48
2022/05/12 02:13:27;;;;;;;3.07;2.80;;;21.20;46.30;;;;;;7380359;19;20408;-46
2022/05/12 02:15:58;;;;;;;3.60;3.30;;;21.10;46.70;;;;;;7380146;19;20740;-47
2022/05/12 02:18:29;;;;;;;3.73;2.30;;;20.70;47.40;;;;;;7379526;19;20361;-48
2022/05/12 02:21:00;;;;;;;4.37;3.43;;;20.60;47.80;;;;;;7375828;19;20743;-46
2022/05/12 02:23:29;;;;;;;2.80;2.60;;;20.30;48.40;;;;;;7383270;19;20455;-48
2022/05/12 02:26:01;;;;;;;4.50;3.23;;;20.20;48.40;;;;;;7377120;19;20914;-47
2022/05/12 02:28:33;;;;;;;3.17;2.83;;;20.30;48.40;;;;;;7382781;19;20872;-47
2022/05/12 02:31:02;;;;;;;3.70;2.93;;;20.20;48.90;;;;;;7378045;19;20443;-46
2022/05/12 02:33:34;;;;;;;9.00;3.13;;;20.20;49.20;;;;;;7380186;19;20408;-46
2022/05/12 02:36:04;;;;;;;2.80;2.60;;;20.30;49.40;;;;;;7378674;19;21036;-47
2022/05/12 02:38:34;;;;;;;2.77;2.57;;;20.30;48.60;;;;;;7374682;19;20379;-47
2022/05/12 02:41:06;;;;;;;3.80;3.00;;;20.10;49.80;;;;;;7381001;19;20368;-46
2022/05/12 02:43:38;;;;;;;4.70;2.77;;;20.20;49.90;;;;;;7382274;19;20401;-46
2022/05/12 02:46:10;;;;;;;3.53;3.07;;;20.10;50.30;;;;;;7381043;19;20411;-47
2022/05/12 02:48:44;;;;;;;3.10;2.80;;;20.20;50.20;;;;;;7377627;19;20465;-47
2022/05/12 02:51:16;;;;;;;3.37;3.07;;;20.10;50.30;;;;;;7380154;19;20960;-48
2022/05/12 02:53:46;;;;;;;8.57;3.80;;;20.20;50.40;;;;;;7381156;19;20364;-46
2022/05/12 02:56:18;;;;;;;5.80;2.93;;;20.30;50.30;;;;;;7381793;19;20384;-46
2022/05/12 02:58:48;;;;;;;3.33;2.70;;;20.30;51.30;;;;;;7379132;19;20383;-47
2022/05/12 03:01:17;;;;;;;6.43;3.07;;;20.30;51.00;;;;;;7374557;19;20384;-47
2022/05/12 03:03:49;;;;;;;3.90;3.50;;;20.30;51.10;;;;;;7378823;19;21320;-47
2022/05/12 03:06:21;;;;;;;4.10;2.87;;;20.20;51.50;;;;;;7384002;19;20375;-47
2022/05/12 03:08:50;;;;;;;5.67;2.93;;;20.20;51.60;;;;;;7377623;19;20380;-47
2022/05/12 03:11:23;;;;;;;3.87;3.30;;;20.10;51.90;;;;;;7382134;19;20952;-41
2022/05/12 03:13:52;;;;;;;3.83;3.40;;;20.00;52.30;;;;;;7379035;19;20375;-42
2022/05/12 03:16:24;;;;;;;3.00;2.50;;;19.80;52.80;;;;;;7377094;19;20848;-41
2022/05/12 03:18:54;;;;;;;5.67;2.67;;;19.80;53.50;;;;;;7376405;19;20376;-42
2022/05/12 03:21:24;;;;;;;5.13;3.40;;;19.80;53.70;;;;;;7380303;19;20376;-42
2022/05/12 03:23:54;;;;;;;3.40;3.10;;;19.80;53.80;;;;;;7373528;19;20364;-41
2022/05/12 03:26:26;;;;;;;3.50;2.90;;;19.80;54.00;;;;;;7378032;19;20381;-41
2022/05/12 03:28:55;;;;;;;5.30;3.17;;;19.90;54.90;;;;;;7382019;19;20452;-42
2022/05/12 03:31:25;;;;;;;3.80;3.17;;;19.90;54.20;;;;;;7377747;19;20398;-41
2022/05/12 03:33:54;;;;;;;6.10;3.50;;;19.90;54.80;;;;;;7377149;19;20372;-41
2022/05/12 03:36:26;;;;;;;3.40;3.20;;;19.90;55.10;;;;;;7375400;19;20364;-42
2022/05/12 03:39:00;;;;;;;4.13;3.27;;;19.90;55.20;;;;;;7379228;19;20439;-41
2022/05/12 03:41:33;;;;;;;6.27;3.00;;;20.00;55.00;;;;;;7378436;19;20396;-47
2022/05/12 03:46:44;;;;;;;3.07;2.77;;;19.90;55.90;;;;;;7380001;19;20814;-47
2022/05/12 03:49:14;;;;;;;8.83;3.43;;;19.80;56.00;;;;;;7372761;19;20477;-46
2022/05/12 03:51:46;;;;;;;3.63;2.87;;;19.80;56.10;;;;;;7380376;19;20934;-47
2022/05/12 03:54:18;;;;;;;4.03;3.20;;;19.90;56.20;;;;;;7377095;19;20380;-46
2022/05/12 03:56:53;;;;;;;3.30;3.00;;;19.90;56.30;;;;;;7376674;19;20384;-47
2022/05/12 03:59:23;;;;;;;3.37;2.67;;;20.00;56.30;;;;;;7378872;19;20423;-47
2022/05/12 04:01:55;;;;;;;4.97;3.00;;;20.20;56.20;;;;;;7371313;19;20372;-47
2022/05/12 04:04:24;;;;;;;2.83;2.63;;;20.20;56.20;;;;;;7375769;19;20456;-47
2022/05/12 04:06:54;;;;;;;3.40;3.07;;;20.10;57.10;;;;;;7374002;19;20807;-47
2022/05/12 04:09:26;;;;;;;4.30;2.57;;;19.90;57.10;;;;;;7379288;19;20944;-48
2022/05/12 04:12:02;;;;;;;3.23;2.93;;;20.00;57.90;;;;;;7373535;19;20370;-48
2022/05/12 04:14:34;;;;;;;7.70;2.40;;;20.00;57.40;;;;;;7379637;19;20391;-47
2022/05/12 04:17:04;;;;;;;2.47;2.27;;;20.10;57.50;;;;;;7377096;19;20443;-48
2022/05/12 04:19:34;;;;;;;6.43;2.43;;;20.30;57.10;;;;;;7374106;19;20382;-41
2022/05/12 04:22:07;;;;;;;3.47;2.67;;;20.30;57.30;;;;;;7377248;19;20742;-42
2022/05/12 04:24:36;;;;;;;4.20;2.50;;;20.40;56.90;;;;;;7378458;19;20376;-41
2022/05/12 04:27:09;;;;;;;4.57;2.50;;;20.30;57.10;;;;;;7375730;19;20665;-42
2022/05/12 04:29:42;;;;;;;3.70;3.40;;;20.50;57.40;;;;;;7375593;19;20388;-41
2022/05/12 04:32:12;;;;;;;3.80;2.53;;;20.40;57.70;;;;;;7376463;19;20901;-42
2022/05/12 04:37:30;;;;;;;3.83;2.47;;;20.30;58.40;;;;;;7377937;19;20906;-42
2022/05/12 04:40:07;;;;;;;3.03;2.20;;;20.30;58.40;;;;;;7377741;19;20372;-42
2022/05/12 04:42:41;;;;;;;2.57;2.30;;;20.40;58.50;;;;;;7377288;19;20387;-41
2022/05/12 04:45:14;;;;;;;5.37;2.20;;;20.20;59.40;;;;;;7373282;19;20376;-41
2022/05/12 04:47:44;;;;;;;4.57;2.67;;;20.10;59.90;;;;;;7374275;19;20398;-41
2022/05/12 04:50:18;;;;;;;4.53;2.50;;;20.10;60.00;;;;;;7371336;19;20471;-49
2022/05/12 04:52:48;;;;;;;3.10;2.80;;;20.30;60.00;;;;;;7371756;19;21084;-50
2022/05/12 04:55:21;;;;;;;6.43;3.30;;;20.30;60.20;;;;;;7372752;19;20444;-49
2022/05/12 04:57:56;;;;;;;3.00;2.47;;;20.40;60.40;;;;;;7372679;19;20713;-49
2022/05/12 05:00:28;;;;;;;6.50;2.70;;;20.30;60.40;;;;;;7373219;19;20374;-49
2022/05/12 05:03:00;;;;;;;4.00;2.63;;;20.30;61.10;;;;;;7370657;19;20380;-50
2022/05/12 05:05:32;;;;;;;3.53;2.20;;;20.40;61.40;;;;;;7375167;19;20379;-48
2022/05/12 05:08:01;;;;;;;2.60;2.10;;;20.50;61.40;;;;;;7372077;19;20473;-49
2022/05/12 05:10:33;;;;;;;2.83;2.03;;;20.40;62.00;;;;;;7364458;19;20957;-49
2022/05/12 05:13:08;;;;;;;5.93;2.47;;;20.50;61.00;;;;;;7372748;19;20360;-51
2022/05/12 05:15:40;;;;;;;10.50;7.43;;;20.60;60.80;;;;;;7372855;19;20383;-49
2022/05/12 05:18:13;;;;;;;15.40;10.30;;;20.70;61.10;;;;;;7373839;19;20388;-50
2022/05/12 05:20:48;;;;;;;11.43;7.90;;;20.90;59.80;;;;;;7370913;19;20922;-49
2022/05/12 05:23:21;;;;;;;13.43;9.47;;;21.00;58.40;;;;;;7376989;19;20372;-50
2022/05/12 05:25:50;;;;;;;21.23;15.13;;;21.00;57.50;;;;;;7376954;19;20376;-48
2022/05/12 05:28:23;;;;;;;11.00;7.10;;;21.10;57.50;;;;;;7372835;19;20803;-50
2022/05/12 05:30:53;;;;;;;6.17;4.17;;;21.20;57.20;;;;;;7368138;19;21048;-49
2022/05/12 05:33:25;;;;;;;3.87;2.77;;;21.20;57.10;;;;;;7375864;19;20379;-49
2022/05/12 05:35:54;;;;;;;3.50;2.80;;;21.30;56.70;;;;;;7368517;19;21087;-50
2022/05/12 05:38:24;;;;;;;5.50;2.40;;;21.30;56.60;;;;;;7369150;19;20373;-50
2022/05/12 05:40:56;;;;;;;3.10;1.87;;;21.30;56.30;;;;;;7369794;19;20399;-49
2022/05/12 05:43:28;;;;;;;4.57;2.17;;;21.30;56.10;;;;;;7371241;19;21227;-50
2022/05/12 05:46:01;;;;;;;7.10;3.10;;;21.30;55.90;;;;;;7372908;19;20364;-42
2022/05/12 05:48:31;;;;;;;2.87;1.77;;;21.40;55.80;;;;;;7365347;19;20436;-42
2022/05/12 05:53:47;;;;;;;2.20;2.10;;;21.50;55.70;;;;;;7375554;19;20946;-42
2022/05/12 05:56:18;;;;;;;2.33;1.87;;;21.50;55.40;;;;;;7374036;19;20402;-42
2022/05/12 05:58:52;;;;;;;5.27;2.50;;;21.60;55.40;;;;;;7377288;19;21027;-42
2022/05/12 06:01:22;;;;;;;2.30;1.97;;;21.60;55.00;;;;;;7375349;19;20376;-42
2022/05/12 06:03:53;;;;;;;2.43;2.23;;;21.70;55.00;;;;;;7376722;19;20403;-42
2022/05/12 06:06:22;;;;;;;2.27;2.00;;;21.70;54.80;;;;;;7376314;19;20376;-42
2022/05/12 06:08:52;;;;;;;2.10;1.90;;;21.70;54.90;;;;;;7374997;19;20376;-42
2022/05/12 06:11:24;;;;;;;3.77;2.30;;;21.70;54.80;;;;;;7376031;19;20376;-42
2022/05/12 06:13:58;;;;;;;2.60;2.20;;;21.80;54.90;;;;;;7373358;19;20376;-42
2022/05/12 06:16:31;;;;;;;4.57;2.27;;;21.90;54.80;;;;;;7373728;19;20382;-42
2022/05/12 06:19:00;;;;;;;3.00;1.80;;;22.00;54.60;;;;;;7376163;19;20378;-42
2022/05/12 06:21:30;;;;;;;2.00;1.80;;;22.10;54.60;;;;;;7373216;19;20391;-47
2022/05/12 06:24:01;;;;;;;2.37;2.17;;;22.30;54.50;;;;;;7374174;19;20376;-47
2022/05/12 06:26:35;;;;;;;4.07;2.47;;;22.40;54.00;;;;;;7381367;19;20924;-47
2022/05/12 06:29:07;;;;;;;3.13;2.10;;;22.50;53.70;;;;;;7382361;19;20391;-47
2022/05/12 06:31:37;;;;;;;2.67;2.20;;;22.80;53.50;;;;;;7379661;19;20364;-47
2022/05/12 06:34:06;;;;;;;2.30;1.80;;;23.00;53.60;;;;;;7384073;19;20465;-47
2022/05/12 06:36:36;;;;;;;5.77;2.20;;;23.20;53.20;;;;;;7380401;19;20395;-49
2022/05/12 06:39:06;;;;;;;5.00;2.30;;;23.40;52.70;;;;;;7382371;19;20731;-47
2022/05/12 06:41:37;;;;;;;6.43;2.43;;;23.60;51.80;;;;;;7382054;19;20889;-47
2022/05/12 06:44:12;;;;;;;2.10;1.70;;;23.80;51.40;;;;;;7382628;19;20488;-49
2022/05/12 06:46:43;;;;;;;2.43;2.23;;;24.00;51.00;;;;;;7381817;19;20890;-47
2022/05/12 06:49:13;;;;;;;2.83;2.00;;;24.00;50.80;;;;;;7376135;19;20476;-47
2022/05/12 06:51:45;;;;;;;5.00;2.07;;;23.80;50.80;;;;;;7380410;19;20383;-47
2022/05/12 06:54:17;;;;;;;3.07;1.80;;;23.80;51.20;;;;;;7379378;19;20939;-48
2022/05/12 06:56:49;;;;;;;3.83;2.40;;;23.80;50.70;;;;;;7381026;19;20384;-47
2022/05/12 06:59:21;;;;;;;3.13;2.20;;;23.60;51.00;;;;;;7381233;19;21046;-47
2022/05/12 07:01:50;;;;;;;4.30;2.40;;;23.60;51.20;;;;;;7377229;19;20364;-47
2022/05/12 07:04:20;;;;;;;10.43;2.80;;;23.50;52.30;;;;;;7379369;19;20461;-47
2022/05/12 07:06:50;;;;;;;4.00;1.80;;;23.30;52.00;;;;;;7384028;19;20379;-47
2022/05/12 07:09:20;;;;;;;4.03;2.30;;;23.30;52.50;;;;;;7376452;19;20380;-47
2022/05/12 07:11:53;;;;;;;2.27;1.80;;;23.40;52.40;;;;;;7377229;19;20962;-47
2022/05/12 07:14:25;;;;;;;3.03;2.10;;;23.50;52.10;;;;;;7380755;19;21633;-47
2022/05/12 07:16:55;;;;;;;2.33;1.77;;;23.70;51.80;;;;;;7378569;19;20384;-49
2022/05/12 07:19:24;;;;;;;3.13;1.67;;;23.90;51.40;;;;;;7378163;19;21026;-47
2022/05/12 07:27:18;;;;;;;7.10;2.40;;;24.70;49.70;;;;;;7381071;19;20999;-47
2022/05/12 07:29:51;;;;;;;2.20;2.00;;;24.80;49.50;;;;;;7376114;19;20871;-48
2022/05/12 07:32:20;;;;;;;3.10;2.17;;;25.10;49.10;;;;;;7378618;19;20384;-47
2022/05/12 07:34:54;;;;;;;2.50;1.63;;;25.20;48.80;;;;;;7379819;19;20379;-47
2022/05/12 07:37:24;;;;;;;2.40;1.90;;;25.20;48.30;;;;;;7380066;19;20380;-47
2022/05/12 07:39:56;;;;;;;3.03;2.17;;;25.10;48.60;;;;;;7380510;19;20914;-47
2022/05/12 07:42:25;;;;;;;2.50;1.80;;;25.10;48.20;;;;;;7381362;19;20380;-48
2022/05/12 07:45:00;;;;;;;3.37;1.93;;;25.10;48.00;;;;;;7383023;19;20372;-47
2022/05/12 07:47:31;;;;;;;3.77;1.97;;;25.00;48.20;;;;;;7378585;19;20870;-47
2022/05/12 07:50:04;;;;;;;3.53;1.67;;;24.90;48.70;;;;;;7374784;19;21096;-42
2022/05/12 07:52:33;;;;;;;5.07;2.00;;;25.20;48.70;;;;;;7379136;19;20384;-42
2022/05/12 07:55:05;;;;;;;10.13;2.10;;;25.50;48.40;;;;;;7380499;19;20400;-42
2022/05/12 07:57:41;;;;;;;3.50;2.03;;;25.80;47.70;;;;;;7377387;19;20360;-42
2022/05/12 08:00:14;;;;;;;3.27;1.80;;;26.20;47.00;;;;;;7376964;19;20917;-42
2022/05/12 08:02:44;;;;;;;9.10;2.43;;;26.40;46.30;;;;;;7376926;19;20361;-42
2022/05/12 08:05:15;;;;;;;3.80;1.90;;;26.40;46.10;;;;;;7379433;19;20380;-42
2022/05/12 08:07:49;;;;;;;3.30;1.77;;;26.60;46.30;;;;;;7379099;19;20801;-42
2022/05/12 08:10:19;;;;;;;3.00;1.73;;;26.70;45.20;;;;;;7374161;19;21600;-42
2022/05/12 08:12:51;;;;;;;2.63;1.67;;;26.30;45.50;;;;;;7374103;19;20380;-42
2022/05/12 08:15:27;;;;;;;3.47;2.00;;;26.20;46.30;;;;;;7371282;19;20645;-42
2022/05/12 08:18:02;;;;;;;3.63;1.70;;;26.30;46.20;;;;;;7371824;19;20431;-42
2022/05/12 08:20:32;;;;;;;2.37;1.80;;;26.50;45.50;;;;;;7377294;19;20971;-42
2022/05/12 08:23:01;;;;;;;3.67;1.70;;;26.70;45.50;;;;;;7373993;19;20398;-42
2022/05/12 08:25:31;;;;;;;3.10;1.47;;;26.90;45.10;;;;;;7379294;19;20384;-42
2022/05/12 08:28:03;;;;;;;4.60;1.90;;;27.20;44.20;;;;;;7379403;19;20380;-42
2022/05/12 08:30:37;;;;;;;4.57;1.60;;;27.20;43.50;;;;;;7374490;19;20372;-48
2022/05/12 08:33:09;;;;;;;3.57;2.07;;;27.10;44.10;;;;;;7375957;19;20420;-47
2022/05/12 08:35:39;;;;;;;2.17;1.53;;;26.90;44.00;;;;;;7380708;19;20770;-47
2022/05/12 08:38:09;;;;;;;1.70;1.60;;;26.80;44.40;;;;;;7379968;19;20384;-47
2022/05/12 08:40:48;;;;;;;1.73;1.50;;;26.70;44.60;;;;;;7376670;19;20377;-49
2022/05/12 08:43:20;;;;;;;2.00;1.67;;;26.90;44.70;;;;;;7373982;19;20385;-47
2022/05/12 08:46:00;;;;;;;4.00;1.77;;;27.10;44.50;;;;;;7377160;19;20400;-47
2022/05/12 08:48:31;;;;;;;4.80;1.67;;;27.10;44.00;;;;;;7375888;19;20431;-47
2022/05/12 08:51:01;;;;;;;1.87;1.57;;;27.00;43.80;;;;;;7374417;19;20392;-47
2022/05/12 08:53:39;;;;;;;2.47;1.60;;;27.00;43.90;;;;;;7376123;19;20906;-48
2022/05/12 08:56:11;;;;;;;3.10;2.13;;;27.20;44.00;;;;;;7380697;19;20452;-47
2022/05/12 08:58:43;;;;;;;2.80;2.20;;;27.30;43.80;;;;;;7377697;19;20384;-45
2022/05/12 09:01:23;;;;;;;2.07;1.70;;;27.50;43.60;;;;;;7378283;19;20413;-46
2022/05/12 09:04:09;;;;;;;4.57;1.80;;;28.00;43.00;;;;;;7376346;19;20471;-46
2022/05/12 09:06:49;;;;;;;2.10;1.43;;;28.40;42.40;;;;;;7376142;19;20368;-45
2022/05/12 09:09:33;;;;;;;1.80;1.70;;;28.70;41.50;;;;;;7378548;19;20386;-45
2022/05/12 09:12:15;;;;;;;2.07;1.87;;;29.00;40.90;;;;;;7378445;19;20922;-46
2022/05/12 09:14:49;;;;;;;4.83;2.37;;;29.30;40.30;;;;;;7376628;19;20894;-46
2022/05/12 09:17:27;;;;;;;2.57;2.10;;;29.70;40.00;;;;;;7373880;19;20371;-47
2022/05/12 09:19:57;;;;;;;2.70;1.90;;;30.10;38.90;;;;;;7375206;19;21260;-47
2022/05/12 09:22:31;;;;;;;5.77;1.93;;;30.40;38.10;;;;;;7378075;19;20392;-47
2022/05/12 09:25:00;;;;;;;2.90;1.83;;;30.60;37.90;;;;;;7372956;19;20377;-47
2022/05/12 09:27:34;;;;;;;4.50;2.30;;;30.70;37.20;;;;;;7376201;19;20439;-47
2022/05/12 09:30:06;;;;;;;3.20;2.30;;;30.70;37.30;;;;;;7374626;19;20370;-47
2022/05/12 09:32:42;;;;;;;3.63;2.43;;;30.40;37.50;;;;;;7379419;19;20372;-46
2022/05/12 09:35:23;;;;;;;2.60;2.40;;;30.30;37.60;;;;;;7378222;19;20383;-46
2022/05/12 09:37:56;;;;;;;4.17;2.67;;;29.90;38.20;;;;;;7377454;19;20754;-44
2022/05/12 09:40:39;;;;;;;3.60;2.53;;;29.50;38.70;;;;;;7378121;19;20372;-45
2022/05/12 09:43:21;;;;;;;2.77;2.50;;;29.30;39.40;;;;;;7376606;19;20368;-45
2022/05/12 09:46:07;;;;;;;2.90;2.60;;;29.20;39.80;;;;;;7375643;19;20387;-45
2022/05/12 09:48:40;;;;;;;3.50;2.83;;;28.80;39.80;;;;;;7376576;19;20439;-46
2022/05/12 09:51:36;;;;;;;4.10;2.90;;;28.70;40.30;;;;;;7375408;19;20392;-45
2022/05/12 09:54:26;;;;;;;2.97;2.77;;;29.00;40.00;;;;;;7375530;19;20411;-46
2022/05/12 09:57:02;;;;;;;2.93;2.33;;;29.80;38.80;;;;;;7376302;19;21096;-45
2022/05/12 09:59:36;;;;;;;3.27;2.13;;;30.80;36.50;;;;;;7381727;19;20870;-43
2022/05/12 10:07:53;;;;;;;3.47;2.93;;;31.40;35.70;;;;;;7383482;19;20392;-43
2022/05/12 10:08:21;;;;;;;2.90;2.60;;;31.90;34.10;;;;;;7383629;19;20380;-43
2022/05/12 10:11:01;;;;;;;2.63;2.43;;;31.80;34.70;;;;;;7384858;19;20721;-43
2022/05/12 10:13:40;;;;;;;2.07;1.87;;;31.80;35.50;;;;;;7384647;19;20451;-43
2022/05/12 10:16:16;;;;;;;4.20;2.10;;;32.20;35.10;;;;;;7383138;19;20391;-43
2022/05/12 10:18:53;;;;;;;3.00;2.23;;;32.70;34.00;;;;;;7381933;19;20360;-43
2022/05/12 10:21:30;;;;;;;4.93;3.80;;;32.50;34.40;;;;;;7380099;19;20440;-43
2022/05/12 10:24:09;;;;;;;3.53;2.30;;;32.90;34.00;;;;;;7382667;19;20372;-43
2022/05/12 10:26:45;;;;;;;2.33;1.83;;;33.20;32.50;;;;;;7382715;19;20376;-43
2022/05/12 10:29:30;;;;;;;4.40;2.40;;;32.30;33.50;;;;;;7382973;19;20391;-43
2022/05/12 10:32:09;;;;;;;4.40;2.33;;;31.90;35.20;;;;;;7377933;19;20427;-47
2022/05/12 10:34:48;;;;;;;2.83;2.00;;;32.80;34.50;;;;;;7384148;19;20368;-46
2022/05/12 10:37:37;;;;;;;3.20;2.00;;;34.50;32.60;;;;;;7383813;19;20909;-45
2022/05/12 10:40:23;;;;;;;2.70;1.80;;;36.70;29.30;;;;;;7385109;19;20380;-45
2022/05/12 10:43:03;;;;;;;2.80;1.97;;;38.00;27.40;;;;;;7381432;19;20777;-45
2022/05/12 10:45:38;;;;;;;4.33;2.57;;;38.30;27.00;;;;;;7379251;19;20372;-45
2022/05/12 10:48:34;;;;;;;5.23;2.83;;;38.20;26.40;;;;;;7383506;19;20422;-46
2022/05/12 10:51:09;;;;;;;1.70;1.60;;;37.10;27.40;;;;;;7378829;19;20387;-46
2022/05/12 10:53:56;;;;;;;2.70;2.50;;;37.30;27.80;;;;;;7383661;19;20764;-45
2022/05/12 10:56:34;;;;;;;3.57;2.43;;;37.70;26.80;;;;;;7382080;19;20388;-47
2022/05/12 10:59:28;;;;;;;3.00;2.33;;;37.80;27.00;;;;;;7382812;19;20738;-46
2022/05/12 11:02:08;;;;;;;3.63;2.10;;;37.40;26.90;;;;;;7381433;19;20376;-41
2022/05/12 11:04:41;;;;;;;2.57;2.30;;;36.80;27.30;;;;;;7382929;19;20368;-41
2022/05/12 11:07:17;;;;;;;3.70;3.00;;;35.90;28.40;;;;;;7383508;19;20464;-41
2022/05/12 11:10:00;;;;;;;3.20;2.33;;;36.20;28.00;;;;;;7379478;19;20399;-41
2022/05/12 11:12:37;;;;;;;3.73;3.33;;;35.90;28.10;;;;;;7379558;19;20376;-40
2022/05/12 11:15:13;;;;;;;5.43;2.40;;;35.20;29.00;;;;;;7381715;19;20747;-41
2022/05/12 11:17:49;;;;;;;3.90;2.70;;;34.80;29.80;;;;;;7383262;19;20372;-41
2022/05/12 11:20:28;;;;;;;4.03;2.50;;;35.20;29.20;;;;;;7383646;19;20386;-41
2022/05/12 11:23:13;;;;;;;2.83;2.63;;;36.10;28.20;;;;;;7383403;19;20375;-41
2022/05/12 11:26:00;;;;;;;5.13;3.60;;;35.60;28.60;;;;;;7368586;19;20443;-41
2022/05/12 11:31:27;;;;;;;2.90;2.47;;;36.00;28.70;;;;;;7364532;19;20372;-46
2022/05/12 11:34:02;;;;;;;3.03;2.73;;;36.60;28.60;;;;;;7371030;19;20378;-45
2022/05/12 11:36:42;;;;;;;5.57;2.53;;;36.60;28.00;;;;;;7370766;19;20365;-45
2022/05/12 11:39:31;;;;;;;2.83;2.57;;;37.20;28.10;;;;;;7370929;19;20371;-48
2022/05/12 11:42:16;;;;;;;3.10;2.20;;;38.50;26.50;;;;;;7380140;19;20401;-47
2022/05/12 11:44:56;;;;;;;4.53;2.70;;;38.80;25.60;;;;;;7373839;19;20414;-47
2022/05/12 11:48:08;;;;;;;7.10;2.90;;;39.30;25.20;;;;;;7368674;19;20384;-47
2022/05/12 11:51:13;;;;;;;2.70;2.50;;;40.10;24.40;;;;;;7376805;19;20767;-45
2022/05/12 11:53:55;;;;;;;4.23;2.70;;;40.10;24.70;;;;;;7373068;19;20384;-46
2022/05/12 11:56:50;;;;;;;2.80;2.43;;;40.20;24.20;;;;;;7371188;19;20384;-46
2022/05/12 11:59:47;;;;;;;3.70;2.60;;;40.30;24.40;;;;;;7374419;19;20421;-45
2022/05/12 12:02:50;;;;;;;3.40;3.07;;;40.40;24.30;;;;;;7375610;19;20466;-45
2022/05/12 12:05:49;;;;;;;3.47;2.63;;;40.80;24.20;;;;;;7356562;19;20453;-46
2022/05/12 12:08:41;;;;;;;5.80;3.00;;;41.10;23.70;;;;;;7362746;19;20798;-46
2022/05/12 12:11:31;;;;;;;3.20;2.63;;;41.60;23.10;;;;;;7369064;19;20379;-45
2022/05/12 12:14:06;;;;;;;2.70;2.50;;;40.20;24.30;;;;;;7368626;19;20372;-47
2022/05/12 12:17:07;;;;;;;4.13;2.70;;;39.70;24.70;;;;;;7370751;19;20458;-45
2022/05/12 12:19:46;;;;;;;3.23;3.00;;;40.30;24.30;;;;;;7372667;19;20372;-45
2022/05/12 12:22:23;;;;;;;3.73;3.20;;;39.90;24.40;;;;;;7367886;19;20375;-48
2022/05/12 12:25:22;;;;;;;3.00;2.80;;;39.30;25.10;;;;;;7371890;19;20482;-45
2022/05/12 12:28:30;;;;;;;6.40;2.50;;;39.30;24.80;;;;;;7363364;19;20432;-47
2022/05/12 12:31:06;;;;;;;3.10;2.67;;;40.50;24.20;;;;;;7367432;19;20521;-46
2022/05/12 12:34:05;;;;;;;4.00;3.20;;;41.00;23.90;;;;;;7369664;19;20367;-45
2022/05/12 12:37:01;;;;;;;4.93;2.67;;;41.70;23.80;;;;;;7365131;19;20412;-44
2022/05/12 12:39:42;;;;;;;6.13;3.00;;;41.40;23.40;;;;;;7372566;19;20403;-45
2022/05/12 12:42:27;;;;;;;4.80;3.23;;;41.50;23.10;;;;;;7375508;19;21358;-47
2022/05/12 12:44:59;;;;;;;7.20;2.87;;;40.20;23.90;;;;;;7365403;19;20387;-45
2022/05/12 12:47:39;;;;;;;3.40;3.10;;;39.40;24.50;;;;;;7349739;19;21605;-46
2022/05/12 12:50:27;;;;;;;8.10;3.70;;;38.60;25.40;;;;;;7352723;19;20439;-45
2022/05/12 12:52:58;;;;;;;3.90;2.90;;;39.30;25.40;;;;;;7367733;19;20435;-45
2022/05/12 12:58:28;;;;;;;4.20;2.90;;;39.40;24.80;;;;;;7371853;19;21192;-45
2022/05/12 13:01:02;;;;;;;4.93;2.70;;;38.60;25.50;;;;;;7374928;19;20382;-45
2022/05/12 13:03:38;;;;;;;3.83;2.70;;;38.00;25.90;;;;;;7372570;19;20388;-44
2022/05/12 13:06:14;;;;;;;3.33;2.93;;;37.40;26.60;;;;;;7368835;19;20409;-44
2022/05/12 13:08:44;;;;;;;3.30;2.40;;;37.50;27.30;;;;;;7369599;19;20913;-44
2022/05/12 13:11:21;;;;;;;2.70;2.50;;;38.30;26.30;;;;;;7367112;19;20424;-44
2022/05/12 13:13:57;;;;;;;2.50;2.00;;;38.40;26.50;;;;;;7366300;19;20379;-44
2022/05/12 13:16:30;;;;;;;2.70;2.37;;;37.80;26.70;;;;;;7358929;19;20391;-45
2022/05/12 13:19:02;;;;;;;8.20;2.70;;;37.10;27.40;;;;;;7345724;19;21903;-45
2022/05/12 13:21:39;;;;;;;3.10;2.37;;;36.30;28.70;;;;;;7374917;19;20379;-44
2022/05/12 13:24:14;;;;;;;2.83;2.63;;;36.20;28.50;;;;;;7374155;19;20388;-45
2022/05/12 13:26:50;;;;;;;4.20;3.10;;;35.60;29.20;;;;;;7370752;19;20932;-45
2022/05/12 13:29:24;;;;;;;3.50;2.70;;;35.00;29.90;;;;;;7365154;19;20383;-46
2022/05/12 13:32:00;;;;;;;3.90;2.70;;;34.30;30.80;;;;;;7366849;19;20385;-46
2022/05/12 13:34:33;;;;;;;4.97;3.10;;;33.50;32.60;;;;;;7369595;19;20384;-47
2022/05/12 13:37:20;;;;;;;5.33;3.33;;;33.10;32.40;;;;;;7372301;19;20367;-46
2022/05/12 13:39:52;;;;;;;3.80;3.20;;;32.80;33.00;;;;;;7370259;19;20435;-41
2022/05/12 13:42:31;;;;;;;7.10;3.23;;;32.60;33.30;;;;;;7367395;19;20800;-41
2022/05/12 13:45:11;;;;;;;3.90;2.90;;;32.30;34.00;;;;;;7374011;19;20849;-41
2022/05/12 13:47:49;;;;;;;3.60;2.67;;;31.70;34.60;;;;;;7352702;19;20784;-40
2022/05/12 13:50:20;;;;;;;3.10;2.80;;;31.70;35.00;;;;;;7366382;19;20725;-40